Time;durP1;ratioP1;P1;durP2;ratioP2;P2;SDS_P1;SDS_P2;PMS_P1;PMS_P2;Temp;Humidity;BMP_temperature;BMP_pressure;BME280_temperature;BME280_humidity;BME280_pressure;Samples;Min_cycle;Max_cycle;Signal;HPM_P1;HPM_P2
2023/12/01 00:00:27;;;;;;;42.10;24.10;;;;;;;-4.69;100.00;100604.14;109329;1252;66947;-55
2023/12/01 00:02:55;;;;;;;48.00;25.50;;;;;;;-4.70;100.00;100617.56;109290;1253;72622;-55
2023/12/01 00:05:23;;;;;;;38.20;22.60;;;;;;;-4.71;100.00;100634.40;109277;1253;59570;-54
2023/12/01 00:07:50;;;;;;;41.40;22.40;;;;;;;-4.70;100.00;100639.09;109331;1252;59037;-55
2023/12/01 00:10:18;;;;;;;40.20;24.00;;;;;;;-4.71;100.00;100632.35;109337;1253;74679;-54
2023/12/01 00:12:45;;;;;;;40.50;24.50;;;;;;;-4.74;100.00;100628.59;109280;1253;65742;-58
2023/12/01 00:15:13;;;;;;;41.60;23.80;;;;;;;-4.76;100.00;100624.80;109285;1253;72345;-55
2023/12/01 00:17:40;;;;;;;38.60;22.70;;;;;;;-4.76;100.00;100632.61;109350;1253;59421;-54
2023/12/01 00:20:08;;;;;;;41.20;25.60;;;;;;;-4.74;100.00;100634.73;109280;1253;60035;-54
2023/12/01 00:22:36;;;;;;;41.20;24.00;;;;;;;-4.74;100.00;100631.66;109329;1253;74264;-55
2023/12/01 00:25:04;;;;;;;37.40;21.80;;;;;;;-4.74;100.00;100626.91;109298;1253;65786;-56
2023/12/01 00:27:32;;;;;;;41.30;23.10;;;;;;;-4.74;100.00;100615.86;109344;1252;73066;-55
2023/12/01 00:30:00;;;;;;;42.40;23.50;;;;;;;-4.72;100.00;100619.18;109280;1253;60970;-55
2023/12/01 00:32:28;;;;;;;36.60;22.10;;;;;;;-4.69;100.00;100607.13;109264;1254;60062;-54
2023/12/01 00:34:55;;;;;;;37.10;22.40;;;;;;;-4.64;100.00;100586.20;109299;1253;74725;-56
2023/12/01 00:37:24;;;;;;;34.60;20.80;;;;;;;-4.59;100.00;100587.34;109353;1252;65383;-55
2023/12/01 00:39:51;;;;;;;38.30;21.70;;;;;;;-4.55;100.00;100598.15;109321;1253;72687;-55
2023/12/01 00:42:19;;;;;;;37.80;22.00;;;;;;;-4.49;100.00;100604.64;109332;1252;60994;-57
2023/12/01 00:44:47;;;;;;;40.30;22.40;;;;;;;-4.45;100.00;100598.65;109319;1252;59123;-55
2023/12/01 00:47:15;;;;;;;36.50;20.80;;;;;;;-4.36;100.00;100570.55;109345;1253;74439;-55
2023/12/01 00:49:42;;;;;;;36.70;20.80;;;;;;;-4.32;100.00;100575.73;109344;1252;66970;-55
2023/12/01 00:52:10;;;;;;;32.90;19.90;;;;;;;-4.29;100.00;100608.37;109362;1252;71998;-54
2023/12/01 00:54:38;;;;;;;35.70;20.60;;;;;;;-4.29;100.00;100634.13;109338;1253;60949;-55
2023/12/01 00:57:05;;;;;;;33.60;18.80;;;;;;;-4.25;100.00;100638.52;109264;1253;59014;-55
2023/12/01 00:59:33;;;;;;;32.30;18.50;;;;;;;-4.20;100.00;100627.92;109332;1253;74719;-56
2023/12/01 01:02:00;;;;;;;31.30;18.70;;;;;;;-4.16;100.00;100611.56;109365;1253;67133;-55
2023/12/01 01:04:28;;;;;;;32.80;19.20;;;;;;;-4.14;100.00;100609.25;109271;1252;72811;-55
2023/12/01 01:06:56;;;;;;;31.90;19.10;;;;;;;-4.11;100.00;100599.28;109311;1252;59684;-57
2023/12/01 01:09:23;;;;;;;34.20;18.90;;;;;;;-4.10;100.00;100586.32;109310;1253;59533;-55
2023/12/01 01:11:51;;;;;;;33.60;19.40;;;;;;;-4.06;100.00;100582.73;109349;1253;74684;-54
2023/12/01 01:14:19;;;;;;;30.10;18.30;;;;;;;-4.02;100.00;100573.54;109329;1253;65994;-55
2023/12/01 01:16:46;;;;;;;30.30;17.50;;;;;;;-4.00;100.00;100567.11;109357;1253;72630;-55
2023/12/01 01:19:14;;;;;;;28.70;16.90;;;;;;;-3.99;100.00;100553.98;109288;1253;59649;-55
2023/12/01 01:21:42;;;;;;;29.60;17.20;;;;;;;-3.97;100.00;100535.54;109360;1252;60121;-54
2023/12/01 01:24:10;;;;;;;28.40;18.10;;;;;;;-3.95;100.00;100538.29;109355;1252;74741;-55
2023/12/01 01:26:38;;;;;;;29.50;17.90;;;;;;;-3.94;100.00;100538.75;109367;1252;65561;-55
2023/12/01 01:29:05;;;;;;;27.80;16.20;;;;;;;-3.94;100.00;100539.93;109366;1253;72750;-60
2023/12/01 01:31:33;;;;;;;37.30;19.30;;;;;;;-3.93;100.00;100536.16;109283;1253;61288;-55
2023/12/01 01:34:01;;;;;;;30.50;16.10;;;;;;;-3.92;100.00;100539.48;109357;1253;60098;-54
2023/12/01 01:36:28;;;;;;;29.00;17.80;;;;;;;-3.94;100.00;100547.91;109336;1253;73411;-55
2023/12/01 01:38:56;;;;;;;40.30;19.40;;;;;;;-3.98;100.00;100557.51;109356;1253;66947;-57
2023/12/01 01:41:24;;;;;;;34.30;17.40;;;;;;;-4.01;100.00;100574.96;109334;1252;72242;-54
2023/12/01 01:43:51;;;;;;;29.90;15.40;;;;;;;-4.07;100.00;100547.44;109282;1252;59587;-54
2023/12/01 01:46:19;;;;;;;32.10;15.70;;;;;;;-4.11;100.00;100538.70;109363;1253;60105;-54
2023/12/01 01:48:47;;;;;;;32.50;17.70;;;;;;;-4.16;100.00;100532.00;109385;1252;74833;-54
2023/12/01 01:51:14;;;;;;;27.80;15.60;;;;;;;-4.20;100.00;100516.39;109295;1253;65466;-59
2023/12/01 01:53:42;;;;;;;28.90;15.30;;;;;;;-4.24;100.00;100525.48;109394;1252;70472;-54
2023/12/01 01:56:13;;;;;;;24.10;13.10;;;;;;;-4.30;100.00;100542.92;109362;1252;59352;-55
2023/12/01 01:58:41;;;;;;;23.90;14.60;;;;;;;-4.36;100.00;100537.28;109257;1252;60066;-54
2023/12/01 02:01:08;;;;;;;28.60;14.50;;;;;;;-4.39;100.00;100530.83;109187;1252;74730;-55
2023/12/01 02:03:38;;;;;;;26.40;14.50;;;;;;;-4.39;100.00;100522.85;109286;1254;66944;-54
2023/12/01 02:06:08;;;;;;;26.80;14.30;;;;;;;-4.36;100.00;100506.60;109373;1253;71093;-54
2023/12/01 02:08:36;;;;;;;22.30;13.50;;;;;;;-4.32;100.00;100501.95;109370;1252;58917;-54
2023/12/01 02:11:04;;;;;;;24.70;13.70;;;;;;;-4.28;100.00;100499.04;109353;1253;59025;-55
2023/12/01 02:13:31;;;;;;;23.20;13.60;;;;;;;-4.27;100.00;100484.08;109269;1254;74860;-54
2023/12/01 02:16:02;;;;;;;26.70;15.20;;;;;;;-4.25;100.00;100486.63;109269;1253;67526;-54
2023/12/01 02:18:30;;;;;;;26.60;14.30;;;;;;;-4.23;100.00;100487.72;109325;1252;71840;-54
2023/12/01 02:20:58;;;;;;;22.50;13.40;;;;;;;-4.23;100.00;100475.36;109326;1253;59315;-57
2023/12/01 02:23:27;;;;;;;25.10;13.50;;;;;;;-4.25;100.00;100468.66;109339;1253;60898;-54
2023/12/01 02:25:54;;;;;;;24.80;13.80;;;;;;;-4.25;100.00;100472.20;109274;1252;74753;-55
2023/12/01 02:28:22;;;;;;;22.30;14.10;;;;;;;-4.26;100.00;100509.41;109345;1253;65663;-56
2023/12/01 02:30:52;;;;;;;24.70;13.20;;;;;;;-4.28;100.00;100530.08;109322;1254;73099;-55
2023/12/01 02:33:20;;;;;;;23.40;13.80;;;;;;;-4.31;100.00;100526.53;109272;1253;59632;-54
2023/12/01 02:35:49;;;;;;;26.40;14.30;;;;;;;-4.29;100.00;100506.73;109369;1252;59486;-53
2023/12/01 02:38:17;;;;;;;27.70;14.30;;;;;;;-4.24;100.00;100512.04;109333;1253;74719;-55
2023/12/01 02:40:49;;;;;;;27.60;15.40;;;;;;;-4.18;100.00;100510.02;109364;1253;67027;-54
2023/12/01 02:43:18;;;;;;;33.20;13.90;;;;;;;-4.13;100.00;100500.77;109316;1253;72697;-54
2023/12/01 02:45:46;;;;;;;24.30;13.10;;;;;;;-4.13;100.00;100486.71;109317;1253;59278;-54
2023/12/01 02:48:14;;;;;;;31.00;16.30;;;;;;;-4.07;100.00;100480.91;109337;1253;60065;-55
2023/12/01 02:50:42;;;;;;;23.40;14.70;;;;;;;-4.03;100.00;100474.06;109388;1253;73924;-54
2023/12/01 02:53:10;;;;;;;24.50;13.00;;;;;;;-4.01;100.00;100467.69;109319;1253;65772;-59
2023/12/01 02:55:37;;;;;;;24.10;13.20;;;;;;;-3.99;100.00;100486.56;109237;1252;70579;-54
2023/12/01 02:58:05;;;;;;;27.50;15.50;;;;;;;-3.96;100.00;100468.41;109345;1253;60129;-55
2023/12/01 03:00:33;;;;;;;28.70;15.50;;;;;;;-3.93;100.00;100462.50;109271;1252;60774;-54
2023/12/01 03:03:01;;;;;;;23.10;13.40;;;;;;;-3.88;100.00;100417.21;109324;1253;74659;-54
2023/12/01 03:05:29;;;;;;;23.90;13.40;;;;;;;-3.82;100.00;100385.47;109259;1253;64764;-55
2023/12/01 03:07:56;;;;;;;22.30;14.40;;;;;;;-3.76;100.00;100394.46;109296;1253;71658;-54
2023/12/01 03:10:24;;;;;;;25.50;15.00;;;;;;;-3.72;100.00;100396.42;109232;1253;60869;-55
2023/12/01 03:12:52;;;;;;;22.50;14.00;;;;;;;-3.68;100.00;100398.40;109333;1253;58954;-56
2023/12/01 03:15:22;;;;;;;22.00;13.80;;;;;;;-3.66;100.00;100408.84;109361;1252;74775;-54
2023/12/01 03:17:50;;;;;;;23.90;14.70;;;;;;;-3.62;100.00;100422.23;109300;1253;66963;-55
2023/12/01 03:20:18;;;;;;;20.20;12.30;;;;;;;-3.59;100.00;100439.19;109428;1253;71099;-54
2023/12/01 03:22:46;;;;;;;17.30;11.60;;;;;;;-3.53;100.00;100457.03;109304;1253;60934;-55
2023/12/01 03:25:13;;;;;;;22.40;11.90;;;;;;;-3.49;100.00;100453.04;109391;1253;60106;-55
2023/12/01 03:27:42;;;;;;;19.60;11.70;;;;;;;-3.43;100.00;100452.69;109338;1253;74665;-60
2023/12/01 03:30:13;;;;;;;22.30;13.40;;;;;;;-3.37;100.00;100451.86;109331;1253;66373;-54
2023/12/01 03:32:45;;;;;;;22.20;12.70;;;;;;;-3.35;100.00;100450.20;109294;1252;72661;-55
2023/12/01 03:35:15;;;;;;;26.10;15.30;;;;;;;-3.31;100.00;100450.98;109327;1253;60904;-55
2023/12/01 03:37:43;;;;;;;26.70;15.20;;;;;;;-3.25;100.00;100435.98;109388;1252;60126;-56
2023/12/01 03:40:14;;;;;;;24.90;15.00;;;;;;;-3.16;100.00;100419.48;109347;1253;73987;-55
2023/12/01 03:42:46;;;;;;;22.00;12.90;;;;;;;-3.08;100.00;100420.90;109259;1252;65715;-55
2023/12/01 03:45:14;;;;;;;21.20;13.80;;;;;;;-3.01;100.00;100415.22;109308;1252;72720;-58
2023/12/01 03:47:49;;;;;;;21.90;13.30;;;;;;;-2.95;100.00;100421.66;109284;1253;60644;-56
2023/12/01 03:50:18;;;;;;;22.60;13.90;;;;;;;-2.90;100.00;100441.73;109334;1253;59354;-55
2023/12/01 03:52:48;;;;;;;21.80;13.00;;;;;;;-2.85;100.00;100447.21;109381;1252;73403;-55
2023/12/01 03:55:16;;;;;;;21.70;13.80;;;;;;;-2.78;100.00;100445.62;109240;1253;65969;-57
2023/12/01 03:57:44;;;;;;;22.70;13.10;;;;;;;-2.74;100.00;100416.28;109335;1252;72771;-57
2023/12/01 04:00:16;;;;;;;19.80;12.30;;;;;;;-2.69;100.00;100411.52;109299;1253;59468;-55
2023/12/01 04:02:46;;;;;;;20.10;11.90;;;;;;;-2.64;100.00;100408.05;109380;1253;59362;-56
2023/12/01 04:05:18;;;;;;;24.70;13.10;;;;;;;-2.64;100.00;100400.38;109261;1253;73922;-59
2023/12/01 04:07:53;;;;;;;19.70;12.10;;;;;;;-2.62;100.00;100407.91;109367;1252;65668;-55
2023/12/01 04:10:24;;;;;;;19.60;12.40;;;;;;;-2.61;100.00;100418.20;109346;1253;71273;-55
2023/12/01 04:12:54;;;;;;;16.90;11.40;;;;;;;-2.57;100.00;100403.48;109264;1253;59511;-54
2023/12/01 04:15:25;;;;;;;18.90;11.40;;;;;;;-2.53;100.00;100386.23;109249;1253;58929;-55
2023/12/01 04:17:54;;;;;;;19.90;11.80;;;;;;;-2.49;100.00;100379.83;109364;1252;74699;-55
2023/12/01 04:20:22;;;;;;;17.50;12.00;;;;;;;-2.45;100.00;100382.15;109255;1253;65716;-54
2023/12/01 04:22:58;;;;;;;18.10;10.70;;;;;;;-2.41;100.00;100392.14;109329;1253;72683;-56
2023/12/01 04:25:27;;;;;;;21.40;12.10;;;;;;;-2.36;100.00;100386.91;109283;1252;59521;-55
2023/12/01 04:27:56;;;;;;;17.30;11.30;;;;;;;-2.32;100.00;100376.92;109339;1252;60049;-54
2023/12/01 04:30:24;;;;;;;18.90;11.30;;;;;;;-2.28;100.00;100365.94;109331;1254;74622;-56
2023/12/01 04:32:53;;;;;;;16.10;10.70;;;;;;;-2.27;100.00;100356.83;109329;1253;65510;-54
2023/12/01 04:35:25;;;;;;;20.00;11.30;;;;;;;-2.24;100.00;100344.23;109323;1252;73163;-55
2023/12/01 04:37:53;;;;;;;19.30;12.00;;;;;;;-2.22;100.00;100336.08;109326;1253;59625;-54
2023/12/01 04:40:21;;;;;;;18.50;11.70;;;;;;;-2.19;100.00;100337.12;109345;1253;58894;-55
2023/12/01 04:42:50;;;;;;;18.00;11.50;;;;;;;-2.16;100.00;100330.45;109356;1252;74730;-56
2023/12/01 04:45:20;;;;;;;18.80;11.90;;;;;;;-2.11;100.00;100313.12;109300;1253;66904;-58
2023/12/01 04:47:51;;;;;;;22.10;12.80;;;;;;;-2.08;100.00;100299.28;109346;1253;70659;-55
2023/12/01 04:50:27;;;;;;;24.20;13.40;;;;;;;-2.05;100.00;100300.30;109329;1253;60976;-55
2023/12/01 04:52:56;;;;;;;22.00;14.50;;;;;;;-2.01;100.00;100311.43;109319;1253;60158;-60
2023/12/01 04:55:28;;;;;;;23.80;13.90;;;;;;;-1.98;100.00;100314.80;109350;1253;73434;-54
2023/12/01 04:57:55;;;;;;;;;;;;;;;-1.94;100.00;100316.38;109383;1253;66207;-54
2023/12/01 05:00:28;;;;;;;25.90;15.30;;;;;;;-1.90;100.00;100324.48;109364;1253;75399;-55
2023/12/01 05:02:59;;;;;;;21.10;13.60;;;;;;;-1.87;100.00;100321.91;109326;1253;60893;-59
2023/12/01 05:05:28;;;;;;;18.40;12.00;;;;;;;-1.84;100.00;100310.80;109403;1253;61131;-54
2023/12/01 05:07:58;;;;;;;21.00;12.70;;;;;;;-1.81;100.00;100313.11;109359;1253;74712;-55
2023/12/01 05:10:30;;;;;;;22.00;13.20;;;;;;;-1.71;100.00;100329.89;109389;1252;67414;-54
2023/12/01 05:13:01;;;;;;;21.60;13.00;;;;;;;-1.61;100.00;100310.77;109332;1253;73190;-59
2023/12/01 05:15:30;;;;;;;18.90;11.90;;;;;;;-1.52;100.00;100297.91;109322;1253;60904;-53
2023/12/01 05:18:02;;;;;;;21.80;13.00;;;;;;;-1.45;100.00;100297.77;109388;1253;60021;-54
2023/12/01 05:20:29;;;;;;;20.50;12.00;;;;;;;-1.38;100.00;100301.36;109368;1253;74618;-54
2023/12/01 05:22:58;;;;;;;19.40;11.70;;;;;;;-1.32;100.00;100306.74;109300;1253;66780;-56
2023/12/01 05:25:28;;;;;;;18.50;11.00;;;;;;;-1.27;100.00;100303.99;109328;1252;72701;-54
2023/12/01 05:27:56;;;;;;;17.70;11.10;;;;;;;-1.20;100.00;100288.17;109311;1253;63448;-55
2023/12/01 05:30:25;;;;;;;21.50;12.10;;;;;;;-1.13;100.00;100275.28;109376;1253;59110;-54
2023/12/01 05:32:53;;;;;;;20.20;12.10;;;;;;;-1.05;100.00;100267.38;109340;1252;73425;-58
2023/12/01 05:35:21;;;;;;;21.00;12.70;;;;;;;-0.97;100.00;100258.79;109345;1252;67433;-53
2023/12/01 05:37:50;;;;;;;19.70;11.00;;;;;;;-0.91;100.00;100253.55;109360;1252;72508;-53
2023/12/01 05:40:23;;;;;;;18.60;12.00;;;;;;;-0.84;100.00;100260.45;109343;1252;60095;-53
2023/12/01 05:42:54;;;;;;;20.00;13.30;;;;;;;-0.78;100.00;100262.88;109354;1253;58944;-55
2023/12/01 05:45:24;;;;;;;21.40;13.20;;;;;;;-0.71;100.00;100256.93;109355;1253;74026;-54
2023/12/01 05:47:54;;;;;;;19.80;12.20;;;;;;;-0.62;100.00;100246.75;109382;1252;67363;-54
2023/12/01 05:50:23;;;;;;;23.00;13.90;;;;;;;-0.56;100.00;100235.19;109367;1252;72725;-53
2023/12/01 05:52:52;;;;;;;23.40;13.50;;;;;;;-0.50;100.00;100229.77;109349;1253;58948;-57
2023/12/01 05:55:21;;;;;;;19.90;12.90;;;;;;;-0.43;100.00;100220.08;109336;1253;60026;-56
2023/12/01 05:57:51;;;;;;;21.10;12.90;;;;;;;-0.34;100.00;100211.00;109396;1253;74720;-56
2023/12/01 06:00:21;;;;;;;20.30;13.00;;;;;;;-0.29;100.00;100204.31;109363;1252;66142;-57
2023/12/01 06:02:50;;;;;;;19.70;12.00;;;;;;;-0.24;100.00;100201.25;109298;1253;72722;-62
2023/12/01 06:05:19;;;;;;;21.20;11.90;;;;;;;-0.19;100.00;100204.45;109353;1254;59673;-56
2023/12/01 06:07:54;;;;;;;20.70;12.10;;;;;;;-0.14;100.00;100203.39;109382;1252;60120;-56
2023/12/01 06:10:23;;;;;;;18.70;12.40;;;;;;;-0.09;100.00;100199.56;109351;1252;74700;-56
2023/12/01 06:12:50;;;;;;;21.70;12.80;;;;;;;-0.06;100.00;100203.33;109352;1253;67950;-58
2023/12/01 06:15:19;;;;;;;19.60;12.00;;;;;;;-0.04;100.00;100203.13;109383;1254;70798;-57
2023/12/01 06:17:48;;;;;;;22.70;13.60;;;;;;;0.02;100.00;100195.23;109331;1254;59638;-56
2023/12/01 06:20:17;;;;;;;23.40;13.20;;;;;;;0.07;100.00;100188.98;109382;1253;60149;-54
2023/12/01 06:22:58;;;;;;;23.40;13.40;;;;;;;0.11;100.00;100173.92;109288;1252;74656;-54
2023/12/01 06:25:28;;;;;;;23.60;14.20;;;;;;;0.13;100.00;100166.32;109371;1253;66204;-54
2023/12/01 06:27:57;;;;;;;20.00;12.30;;;;;;;0.16;100.00;100165.41;109354;1253;72783;-54
2023/12/01 06:30:26;;;;;;;21.10;14.00;;;;;;;0.19;100.00;100166.84;109306;1253;60945;-55
2023/12/01 06:32:54;;;;;;;20.00;13.40;;;;;;;0.23;100.00;100156.81;109330;1252;58986;-54
2023/12/01 06:35:21;;;;;;;19.30;12.50;;;;;;;0.28;100.00;100160.05;109351;1253;74684;-54
2023/12/01 06:37:49;;;;;;;19.70;12.40;;;;;;;0.30;100.00;100167.77;109311;1253;67068;-55
2023/12/01 06:40:17;;;;;;;20.60;13.10;;;;;;;0.35;100.00;100160.18;109381;1253;72698;-55
2023/12/01 06:42:53;;;;;;;21.60;12.90;;;;;;;0.41;100.00;100141.75;109367;1257;59367;-56
2023/12/01 06:45:23;;;;;;;21.40;12.70;;;;;;;0.45;100.00;100138.17;109382;1253;60511;-55
2023/12/01 06:47:55;;;;;;;20.40;13.30;;;;;;;0.46;100.00;100137.91;109330;1253;73430;-57
2023/12/01 06:50:23;;;;;;;67.50;39.90;;;;;;;0.43;100.00;100144.61;109316;1252;66228;-55
2023/12/01 06:52:51;;;;;;;71.60;45.00;;;;;;;0.48;100.00;100139.46;109477;1253;71146;-54
2023/12/01 06:55:19;;;;;;;46.70;31.30;;;;;;;0.51;100.00;100136.17;109333;1254;60906;-55
2023/12/01 06:57:48;;;;;;;47.20;31.80;;;;;;;0.55;100.00;100124.79;109363;1254;59924;-55
2023/12/01 07:00:29;;;;;;;31.10;20.40;;;;;;;0.58;100.00;100112.37;109365;1253;74739;-62
2023/12/01 07:03:00;;;;;;;29.70;20.70;;;;;;;0.59;100.00;100104.44;109377;1252;66893;-55
2023/12/01 07:05:28;;;;;;;21.70;14.20;;;;;;;0.61;100.00;100096.52;109410;1253;72715;-55
2023/12/01 07:07:57;;;;;;;22.30;13.30;;;;;;;0.65;100.00;100092.80;109370;1253;61039;-55
2023/12/01 07:10:25;;;;;;;23.00;12.90;;;;;;;0.69;100.00;100085.84;109322;1253;60204;-57
2023/12/01 07:12:52;;;;;;;25.10;14.90;;;;;;;0.72;100.00;100072.09;109380;1252;73204;-59
2023/12/01 07:15:22;;;;;;;22.40;14.40;;;;;;;0.75;100.00;100064.29;109416;1253;66872;-56
2023/12/01 07:17:53;;;;;;;22.30;14.70;;;;;;;0.76;100.00;100053.45;109342;1254;71468;-56
2023/12/01 07:20:20;;;;;;;22.50;15.20;;;;;;;0.77;100.00;100043.48;109316;1254;60594;-57
2023/12/01 07:22:49;;;;;;;23.00;16.20;;;;;;;0.76;100.00;100032.61;109354;1252;60157;-57
2023/12/01 07:25:24;;;;;;;21.10;13.30;;;;;;;0.80;100.00;100024.26;109359;1253;74867;-58
2023/12/01 07:27:58;;;;;;;18.50;12.10;;;;;;;0.84;100.00;100025.77;109390;1253;67394;-59
2023/12/01 07:30:29;;;;;;;25.10;15.30;;;;;;;0.88;100.00;100023.06;109370;1252;72791;-59
2023/12/01 07:33:00;;;;;;;19.50;13.10;;;;;;;0.88;100.00;100019.45;109336;1253;59625;-59
2023/12/01 07:35:28;;;;;;;21.30;13.30;;;;;;;0.92;100.00;100012.47;109365;1253;62094;-61
2023/12/01 07:37:55;;;;;;;22.20;14.50;;;;;;;0.92;100.00;100002.72;109336;1253;73460;-61
2023/12/01 07:40:23;;;;;;;20.60;12.20;;;;;;;0.95;100.00;100000.92;109336;1253;66592;-62
2023/12/01 07:42:55;;;;;;;19.00;12.40;;;;;;;0.99;100.00;99998.89;109371;1253;73675;-62
2023/12/01 07:45:23;;;;;;;18.60;11.80;;;;;;;1.04;100.00;99999.14;109421;1253;61024;-63
2023/12/01 07:47:52;;;;;;;17.20;11.80;;;;;;;1.07;100.00;99999.41;109195;1253;59042;-62
2023/12/01 07:50:21;;;;;;;21.50;13.40;;;;;;;1.11;100.00;99993.20;109325;1252;74997;-63
2023/12/01 07:52:50;;;;;;;20.90;13.10;;;;;;;1.13;100.00;99985.02;109186;1254;66927;-63
2023/12/01 07:55:21;;;;;;;21.00;13.30;;;;;;;1.14;100.00;99979.96;109354;1253;72763;-63
2023/12/01 07:57:48;;;;;;;20.70;14.20;;;;;;;1.16;100.00;99984.27;109344;1253;60337;-62
2023/12/01 08:00:16;;;;;;;22.70;13.10;;;;;;;1.16;100.00;99986.80;109325;1254;60087;-62
2023/12/01 08:02:47;;;;;;;20.80;13.60;;;;;;;1.20;100.00;99981.83;109353;1253;74694;-62
2023/12/01 08:05:15;;;;;;;24.10;15.00;;;;;;;1.26;100.00;99974.55;109325;1253;67159;-62
2023/12/01 08:07:54;;;;;;;19.00;12.40;;;;;;;1.26;100.00;99973.30;109323;1252;71504;-62
2023/12/01 08:10:25;;;;;;;18.30;12.60;;;;;;;1.28;100.00;99969.02;109288;1252;61873;-61
2023/12/01 08:12:56;;;;;;;20.70;12.80;;;;;;;1.26;100.00;99961.04;109307;1253;59059;-62
2023/12/01 08:15:26;;;;;;;21.00;12.50;;;;;;;1.26;100.00;99946.09;109351;1253;74740;-62
2023/12/01 08:17:56;;;;;;;18.30;12.90;;;;;;;1.26;100.00;99939.44;109356;1254;67045;-62
2023/12/01 08:20:24;;;;;;;18.70;12.70;;;;;;;1.32;100.00;99930.86;109298;1254;72744;-62
2023/12/01 08:22:52;;;;;;;19.40;12.10;;;;;;;1.40;100.00;99915.27;109321;1253;60969;-62
2023/12/01 08:25:22;;;;;;;17.90;12.40;;;;;;;1.38;100.00;99901.58;109401;1252;59321;-62
2023/12/01 08:27:52;;;;;;;19.50;11.30;;;;;;;1.39;100.00;99895.30;109355;1254;73611;-61
2023/12/01 08:30:19;;;;;;;21.10;12.30;;;;;;;1.41;100.00;99885.25;109386;1254;65660;-62
2023/12/01 08:32:48;;;;;;;22.00;14.30;;;;;;;1.45;100.00;99874.59;109402;1254;72709;-62
2023/12/01 08:35:16;;;;;;;20.80;12.40;;;;;;;1.44;100.00;99860.35;109373;1254;60098;-62
2023/12/01 08:37:44;;;;;;;17.20;11.30;;;;;;;1.45;100.00;99845.55;109388;1252;59483;-62
2023/12/01 08:40:12;;;;;;;15.70;10.10;;;;;;;1.46;100.00;99831.24;109344;1254;75215;-63
2023/12/01 08:42:41;;;;;;;15.80;10.30;;;;;;;1.48;100.00;99824.39;109421;1253;66025;-63
2023/12/01 08:45:10;;;;;;;14.70;9.90;;;;;;;1.49;100.00;99822.21;109364;1253;72735;-63
2023/12/01 08:47:39;;;;;;;13.50;9.50;;;;;;;1.52;100.00;99808.61;109373;1252;60294;-63
2023/12/01 08:50:07;;;;;;;16.10;10.00;;;;;;;1.53;100.00;99797.39;109358;1253;59982;-63
2023/12/01 08:52:40;;;;;;;19.20;11.30;;;;;;;1.53;100.00;99793.60;109406;1254;74776;-63
2023/12/01 08:55:10;;;;;;;15.50;9.70;;;;;;;1.55;100.00;99785.71;109343;1254;68753;-63
2023/12/01 08:57:37;;;;;;;17.10;10.00;;;;;;;1.57;100.00;99782.98;109362;1253;70274;-64
2023/12/01 09:00:06;;;;;;;12.60;9.00;;;;;;;1.58;100.00;99774.01;109336;1254;60905;-64
2023/12/01 09:02:34;;;;;;;14.80;9.60;;;;;;;1.58;100.00;99768.64;109380;1254;60214;-64
2023/12/01 09:05:03;;;;;;;14.70;10.00;;;;;;;1.60;100.00;99758.73;109385;1253;75934;-63
2023/12/01 09:07:32;;;;;;;16.10;8.80;;;;;;;1.63;100.00;99749.76;109351;1254;69255;-64
2023/12/01 09:09:59;;;;;;;18.60;10.40;;;;;;;1.67;100.00;99735.80;109384;1253;73995;-63
2023/12/01 09:12:27;;;;;;;14.30;9.00;;;;;;;1.72;100.00;99730.62;109376;1252;60654;-63
2023/12/01 09:14:55;;;;;;;16.10;10.40;;;;;;;1.74;100.00;99727.85;109376;1252;62305;-63
2023/12/01 09:17:23;;;;;;;13.00;9.50;;;;;;;1.77;100.00;99720.89;109409;1253;76884;-62
2023/12/01 09:19:51;;;;;;;15.70;9.90;;;;;;;1.82;100.00;99722.65;109314;1253;69172;-62
2023/12/01 09:22:19;;;;;;;13.40;9.40;;;;;;;1.85;100.00;99717.38;109293;1254;75078;-59
2023/12/01 09:24:48;;;;;;;17.30;10.60;;;;;;;1.84;100.00;99700.73;109158;1254;61922;-59
2023/12/01 09:27:17;;;;;;;16.80;10.20;;;;;;;1.85;100.00;99685.37;109180;1254;61906;-59
2023/12/01 09:29:44;;;;;;;14.80;9.50;;;;;;;1.88;100.00;99687.32;109145;1254;74699;-62
2023/12/01 09:32:12;;;;;;;15.00;10.20;;;;;;;1.91;100.00;99681.93;109209;1253;67540;-60
2023/12/01 09:34:40;;;;;;;16.10;10.20;;;;;;;1.92;100.00;99675.64;109125;1255;74409;-60
2023/12/01 09:37:08;;;;;;;20.60;11.50;;;;;;;1.92;100.00;99675.92;109120;1254;60487;-59
2023/12/01 09:39:36;;;;;;;15.80;10.20;;;;;;;1.94;100.00;99676.77;109199;1254;60277;-59
2023/12/01 09:42:08;;;;;;;13.50;10.20;;;;;;;1.96;100.00;99666.67;109250;1254;75764;-59
2023/12/01 09:44:36;;;;;;;15.90;10.80;;;;;;;1.95;100.00;99661.29;109159;1254;70020;-59
2023/12/01 09:47:04;;;;;;;15.10;10.40;;;;;;;2.02;100.00;99655.56;109156;1254;72773;-59
2023/12/01 09:49:34;;;;;;;14.10;10.40;;;;;;;2.04;100.00;99644.56;109268;1254;62520;-60
2023/12/01 09:52:02;;;;;;;14.90;10.20;;;;;;;2.06;100.00;99636.84;109135;1254;61055;-61
2023/12/01 09:54:30;;;;;;;17.80;10.80;;;;;;;2.08;100.00;99637.31;109137;1254;74646;-61
2023/12/01 09:56:58;;;;;;;17.60;11.50;;;;;;;2.10;100.00;99624.13;109178;1254;70165;-61
2023/12/01 09:59:26;;;;;;;15.30;10.00;;;;;;;2.12;100.00;99610.91;109137;1256;76234;-61
2023/12/01 10:01:53;;;;;;;15.60;10.00;;;;;;;2.15;100.00;99605.64;109103;1254;61926;-64
2023/12/01 10:04:21;;;;;;;14.30;9.80;;;;;;;2.16;100.00;99599.65;109274;1254;59903;-62
2023/12/01 10:06:49;;;;;;;15.30;10.10;;;;;;;2.17;100.00;99597.34;109144;1256;74762;-63
2023/12/01 10:09:27;;;;;;;13.20;9.00;;;;;;;2.18;100.00;99590.89;109161;1255;68065;-63
2023/12/01 10:12:15;;;;;;;14.10;9.20;;;;;;;2.20;100.00;99578.73;109107;1254;74844;-65
2023/12/01 10:14:43;;;;;;;18.80;10.90;;;;;;;2.23;100.00;99579.88;109169;1254;63535;-61
2023/12/01 10:17:14;;;;;;;13.40;9.40;;;;;;;2.28;100.00;99578.06;109077;1254;59101;-63
2023/12/01 10:19:47;;;;;;;14.80;9.30;;;;;;;2.30;100.00;99574.06;109093;1254;74831;-61
2023/12/01 10:22:19;;;;;;;16.50;10.70;;;;;;;2.34;100.00;99573.84;109163;1254;69001;-63
2023/12/01 10:24:56;;;;;;;15.50;10.60;;;;;;;2.38;100.00;99561.82;109345;1253;72635;-61
2023/12/01 10:27:24;;;;;;;14.20;9.50;;;;;;;2.42;100.00;99556.59;109142;1253;60880;-61
2023/12/01 10:30:11;;;;;;;13.70;8.80;;;;;;;2.44;100.00;99555.21;109368;1254;63216;-61
2023/12/01 10:32:38;;;;;;;12.90;9.00;;;;;;;2.45;100.00;99555.27;109193;1254;76064;-61
2023/12/01 10:35:07;;;;;;;14.30;8.40;;;;;;;2.48;100.00;99546.11;109367;1253;66782;-64
2023/12/01 10:37:35;;;;;;;11.60;7.80;;;;;;;2.50;100.00;99537.14;109381;1254;74640;-61
2023/12/01 10:40:05;;;;;;;13.10;7.80;;;;;;;2.53;100.00;99540.80;109093;1254;62270;-61
2023/12/01 10:42:32;;;;;;;11.80;7.80;;;;;;;2.56;100.00;99534.10;109327;1253;62011;-64
2023/12/01 10:45:01;;;;;;;12.70;7.90;;;;;;;2.57;100.00;99537.00;109319;1254;75430;-62
2023/12/01 10:47:29;;;;;;;10.90;6.80;;;;;;;2.58;100.00;99536.30;109184;1252;66087;-62
2023/12/01 10:49:57;;;;;;;9.60;6.80;;;;;;;2.60;100.00;99532.71;109178;1257;75673;-62
2023/12/01 10:52:25;;;;;;;11.60;6.40;;;;;;;2.61;100.00;99528.98;109159;1254;61889;-61
2023/12/01 10:54:53;;;;;;;11.00;7.10;;;;;;;2.63;100.00;99524.18;109364;1252;60073;-62
2023/12/01 10:57:26;;;;;;;9.90;6.40;;;;;;;2.68;100.00;99513.80;109295;1253;75757;-63
2023/12/01 10:59:56;;;;;;;9.90;7.30;;;;;;;2.71;100.00;99504.61;109364;1252;69391;-62
2023/12/01 11:02:26;;;;;;;9.50;6.30;;;;;;;2.70;100.00;99505.16;109289;1254;72707;-62
2023/12/01 11:04:54;;;;;;;9.40;6.80;;;;;;;2.69;100.00;99506.23;109188;1254;61221;-62
2023/12/01 11:07:37;;;;;;;10.40;7.00;;;;;;;2.68;100.00;99488.54;109182;1253;59171;-63
2023/12/01 11:10:21;;;;;;;10.60;7.20;;;;;;;2.70;100.00;99493.73;109271;1257;74920;-62